Terminal Aerodrome Forecast
Issued by NWS Norman, OK

Home | Current Version | Previous Version | Text Only | Print | Product List | Glossary On
Versions: 1 2 3 4 5 6 7 8 9 10 11 12 13 14 15
000
FTUS44 KOUN 231140
TAFSPS
TAF
KSPS 231140Z 2312/2412 10004KT 2SM BR OVC005
      TEMPO 2312/2316 3/4SM BR VV002
     FM231600 08005KT 4SM BR VCSH OVC008
      TEMPO 2316/2320 5SM -RA BR
     FM240000 11006KT 1SM -RA BR OVC003=

USA.gov is the U.S. government's official web portal to all federal, state and local government web resources and services.